Time;durP1;ratioP1;P1;durP2;ratioP2;P2;SDS_P1;SDS_P2;PMS_P1;PMS_P2;Temp;Humidity;BMP_temperature;BMP_pressure;BME280_temperature;BME280_humidity;BME280_pressure;Samples;Min_cycle;Max_cycle;Signal;HPM_P1;HPM_P2
2023/07/26 00:01:33;;;;;;;11.25;4.63;;;;;;;27.40;100.00;98959.25;5007151;28;20139;-75
2023/07/26 00:03:58;;;;;;;8.25;4.18;;;;;;;27.67;100.00;99040.19;4999609;28;20108;-74
2023/07/26 00:06:29;;;;;;;9.65;4.07;;;;;;;27.13;100.00;98961.59;4993557;28;20725;-76
2023/07/26 00:08:55;;;;;;;8.40;3.28;;;;;;;27.29;100.00;98949.44;5006088;28;20041;-76
2023/07/26 00:11:20;;;;;;;6.45;3.33;;;;;;;27.78;100.00;99023.84;4986957;28;20066;-76
2023/07/26 00:13:46;;;;;;;7.13;3.78;;;;;;;27.13;100.00;98937.38;4987664;28;20497;-75
2023/07/26 00:16:11;;;;;;;7.45;3.90;;;;;;;27.35;100.00;99000.06;4997792;28;20061;-76
2023/07/26 00:18:40;;;;;;;6.97;3.15;;;;;;;26.98;100.00;98979.19;5000283;28;20057;-75
2023/07/26 00:21:07;;;;;;;5.47;3.08;;;;;;;27.41;100.00;99042.59;5012382;28;20382;-74
2023/07/26 00:23:32;;;;;;;6.88;3.17;;;;;;;26.56;100.00;98913.97;5009176;28;20026;-76
2023/07/26 00:25:58;;;;;;;6.65;3.70;;;;;;;27.04;100.00;98997.47;5007242;28;20057;-75
2023/07/26 00:28:23;;;;;;;10.00;4.97;;;;;;;26.66;100.00;98933.66;5003046;28;20049;-73
2023/07/26 00:30:49;;;;;;;10.40;4.00;;;;;;;26.70;100.00;98954.75;5008605;28;20052;-75
2023/07/26 00:33:15;;;;;;;8.68;4.43;;;;;;;27.03;100.00;99017.31;5007815;28;20049;-75
2023/07/26 00:35:42;;;;;;;6.53;4.03;;;;;;;27.00;100.00;99022.97;5007883;28;20082;-75
2023/07/26 00:38:08;;;;;;;9.52;5.45;;;;;;;26.76;100.00;98972.19;5005134;28;20041;-75
2023/07/26 00:40:35;;;;;;;14.70;7.40;;;;;;;26.46;100.00;98922.81;5008892;28;20088;-75
2023/07/26 00:43:00;;;;;;;7.28;5.03;;;;;;;25.98;100.00;98882.34;5003810;28;20864;-76
2023/07/26 00:45:28;;;;;;;6.15;3.80;;;;;;;26.87;100.00;99000.84;5001894;28;20049;-74
2023/07/26 00:47:54;;;;;;;7.40;4.97;;;;;;;26.15;100.00;98886.22;5005270;28;20160;-77
2023/07/26 00:50:19;;;;;;;8.07;5.50;;;;;;;26.60;100.00;98990.69;5009224;28;20045;-75
2023/07/26 00:52:46;;;;;;;5.88;4.65;;;;;;;26.59;100.00;98967.50;5008441;28;20567;-75
2023/07/26 00:55:12;;;;;;;7.25;4.75;;;;;;;26.49;100.00;98970.97;5015427;28;20628;-76
2023/07/26 00:57:38;;;;;;;6.43;3.83;;;;;;;26.15;100.00;98927.38;5020055;28;20037;-76
2023/07/26 01:00:05;;;;;;;5.25;3.05;;;;;;;26.62;100.00;98994.97;5013573;28;20091;-75
2023/07/26 01:02:30;;;;;;;8.52;5.10;;;;;;;25.88;100.00;98885.84;5021501;28;20029;-75
2023/07/26 01:04:56;;;;;;;7.85;3.70;;;;;;;26.57;100.00;99005.28;5019658;28;20090;-75
2023/07/26 01:07:37;;;;;;;7.18;3.75;;;;;;;26.44;100.00;99007.34;5012858;28;20038;-76
2023/07/26 01:10:35;;;;;;;6.78;4.20;;;;;;;25.82;100.00;98947.28;5021439;28;20048;-75
2023/07/26 01:13:24;;;;;;;7.00;3.75;;;;;;;26.38;100.00;99000.66;5011708;28;20068;-76
2023/07/26 01:15:49;;;;;;;8.50;5.43;;;;;;;25.84;100.00;98888.91;5008101;28;20061;-77
2023/07/26 01:18:16;;;;;;;11.60;5.38;;;;;;;25.99;100.00;98911.78;5016058;28;20457;-76
2023/07/26 01:20:42;;;;;;;11.55;4.82;;;;;;;25.86;100.00;98890.50;5017549;28;20060;-76
2023/07/26 01:23:08;;;;;;;13.55;4.93;;;;;;;25.83;100.00;98928.38;5014190;28;20517;-75
2023/07/26 01:25:34;;;;;;;8.80;4.20;;;;;;;26.17;100.00;98989.09;5037681;28;20038;-75
2023/07/26 01:28:02;;;;;;;7.65;4.78;;;;;;;26.11;100.00;98971.69;5014300;28;20524;-75
2023/07/26 01:30:30;;;;;;;10.35;6.00;;;;;;;25.60;100.00;98951.00;5012421;28;20045;-78
2023/07/26 01:32:59;;;;;;;8.00;5.72;;;;;;;25.67;100.00;99001.38;5016827;28;20033;-75
2023/07/26 01:35:25;;;;;;;8.32;5.28;;;;;;;25.54;100.00;98987.28;5008808;28;20089;-76
2023/07/26 01:37:55;;;;;;;8.07;6.55;;;;;;;25.40;100.00;98995.66;5002067;28;20493;-76
2023/07/26 01:40:22;;;;;;;7.47;4.13;;;;;;;24.21;100.00;98819.44;5016648;28;20050;-75
2023/07/26 01:42:49;;;;;;;14.48;4.03;;;;;;;24.63;100.00;98894.66;5012971;28;20050;-76
2023/07/26 01:45:15;;;;;;;10.10;6.18;;;;;;;23.46;100.00;98699.59;5009888;28;20041;-76
2023/07/26 01:47:40;;;;;;;6.55;4.35;;;;;;;25.43;100.00;98974.78;5022877;28;20454;-75
2023/07/26 01:50:07;;;;;;;13.73;5.95;;;;;;;25.24;100.00;98986.22;5007833;28;20057;-75
2023/07/26 01:52:33;;;;;;;7.07;3.90;;;;;;;24.54;100.00;98876.69;5015429;28;20044;-76
2023/07/26 01:54:59;;;;;;;6.95;4.03;;;;;;;24.93;100.00;98974.44;5001551;28;20034;-77
2023/07/26 01:57:25;;;;;;;18.50;5.35;;;;;;;24.63;100.00;98900.03;5011343;28;20046;-75
2023/07/26 01:59:51;;;;;;;7.57;3.95;;;;;;;24.42;100.00;98887.38;5015971;28;20435;-74
2023/07/26 02:02:17;;;;;;;10.95;5.72;;;;;;;24.26;100.00;98883.41;5015850;28;20053;-75
2023/07/26 02:04:44;;;;;;;6.97;4.38;;;;;;;24.36;100.00;98890.56;5007277;28;20052;-75
2023/07/26 02:07:10;;;;;;;11.40;4.07;;;;;;;25.15;100.00;98997.69;5019677;28;20149;-75
2023/07/26 02:09:36;;;;;;;7.22;4.72;;;;;;;24.95;100.00;99002.00;5015320;28;20121;-75
2023/07/26 02:12:01;;;;;;;9.63;5.15;;;;;;;24.43;100.00;98897.13;5015470;28;20162;-74
2023/07/26 02:14:27;;;;;;;9.93;4.32;;;;;;;25.15;100.00;99007.59;5020866;28;20497;-74
2023/07/26 02:16:53;;;;;;;6.05;4.00;;;;;;;24.91;100.00;99003.28;5014288;28;20045;-76
2023/07/26 02:19:18;;;;;;;11.45;4.85;;;;;;;24.15;100.00;98881.59;5018001;28;20051;-75
2023/07/26 02:21:44;;;;;;;6.90;3.45;;;;;;;24.91;100.00;99011.31;5017031;28;20557;-75
2023/07/26 02:24:09;;;;;;;6.30;4.32;;;;;;;24.74;100.00;99023.41;5012225;28;20041;-75
2023/07/26 02:26:34;;;;;;;11.15;6.50;;;;;;;23.96;100.00;98907.19;5012219;28;20058;-74
2023/07/26 02:29:00;;;;;;;8.15;4.78;;;;;;;24.59;100.00;99013.94;5018327;28;20053;-75
2023/07/26 02:31:25;;;;;;;10.65;5.78;;;;;;;24.40;100.00;98993.06;5008949;28;20030;-74
2023/07/26 02:33:51;;;;;;;5.25;3.72;;;;;;;24.71;100.00;99010.25;5012562;28;20037;-77
2023/07/26 02:36:17;;;;;;;12.55;5.18;;;;;;;24.67;100.00;99022.19;5006253;28;20109;-76
2023/07/26 02:38:43;;;;;;;8.02;3.80;;;;;;;24.16;100.00;98931.53;5020343;28;20080;-77
2023/07/26 02:41:08;;;;;;;9.70;4.95;;;;;;;24.50;100.00;98996.75;5038329;28;20044;-76
2023/07/26 02:43:34;;;;;;;14.48;4.40;;;;;;;24.06;100.00;98925.22;5020992;28;20046;-76
2023/07/26 02:45:59;;;;;;;6.47;4.65;;;;;;;23.25;100.00;98815.47;5019172;28;20048;-76
2023/07/26 02:48:25;;;;;;;6.97;4.68;;;;;;;23.97;100.00;98927.63;5021692;28;20041;-75
2023/07/26 02:50:50;;;;;;;13.80;5.30;;;;;;;23.78;100.00;98889.88;5016498;28;20458;-75
2023/07/26 02:53:16;;;;;;;8.15;4.47;;;;;;;23.95;100.00;98899.25;5022481;28;20037;-76
2023/07/26 02:55:42;;;;;;;5.55;4.10;;;;;;;24.58;100.00;98998.78;5012912;28;20061;-76
2023/07/26 02:58:07;;;;;;;4.97;2.80;;;;;;;24.08;100.00;98920.59;5011905;28;20053;-74
2023/07/26 03:00:33;;;;;;;7.07;4.25;;;;;;;23.79;100.00;98889.78;5017781;28;20087;-74
2023/07/26 03:02:58;;;;;;;12.90;5.22;;;;;;;24.32;100.00;98990.97;5024700;28;20207;-76
2023/07/26 03:05:24;;;;;;;6.70;4.35;;;;;;;23.62;100.00;98876.81;5052929;28;20477;-76
2023/07/26 03:07:49;;;;;;;8.35;4.75;;;;;;;23.73;100.00;98916.16;5013832;28;20147;-75
2023/07/26 03:10:15;;;;;;;9.38;4.68;;;;;;;24.19;100.00;99001.84;5024835;28;20367;-76
2023/07/26 03:12:40;;;;;;;7.03;4.68;;;;;;;23.90;100.00;98941.63;5020150;28;20050;-77
2023/07/26 03:15:06;;;;;;;12.70;5.80;;;;;;;23.76;100.00;98938.25;5022346;28;20034;-76
2023/07/26 03:17:32;;;;;;;10.57;6.38;;;;;;;23.70;100.00;98924.44;5019258;28;20828;-75
2023/07/26 03:19:58;;;;;;;11.50;5.25;;;;;;;24.19;100.00;98995.63;5021145;28;20405;-76
2023/07/26 03:22:23;;;;;;;8.75;4.20;;;;;;;24.35;100.00;99030.97;5016629;28;20083;-78
2023/07/26 03:24:49;;;;;;;8.65;5.38;;;;;;;23.91;100.00;98946.03;5017957;28;20141;-76
2023/07/26 03:27:14;;;;;;;8.73;4.63;;;;;;;24.16;100.00;98999.41;5019722;28;20565;-76
2023/07/26 03:29:40;;;;;;;11.68;6.20;;;;;;;23.47;100.00;98916.34;5022645;28;20049;-76
2023/07/26 03:32:06;;;;;;;8.27;4.97;;;;;;;24.04;100.00;98981.59;5015136;28;20044;-77
2023/07/26 03:34:32;;;;;;;6.90;4.03;;;;;;;24.42;100.00;99000.00;5021262;28;20061;-75
2023/07/26 03:36:57;;;;;;;11.05;4.80;;;;;;;24.47;100.00;99031.84;5013447;28;20052;-76
2023/07/26 03:39:23;;;;;;;11.52;4.18;;;;;;;24.34;100.00;99026.56;5021859;28;20561;-74
2023/07/26 03:41:48;;;;;;;8.68;6.03;;;;;;;24.46;100.00;99015.84;5017483;28;20092;-76
2023/07/26 03:44:13;;;;;;;11.27;6.22;;;;;;;23.93;100.00;98909.28;5020162;28;20041;-77
2023/07/26 03:46:39;;;;;;;9.27;5.35;;;;;;;24.25;100.00;98946.03;5017757;28;20050;-75
2023/07/26 03:49:04;;;;;;;9.75;4.53;;;;;;;24.84;100.00;99040.47;5020111;28;20501;-75
2023/07/26 03:51:30;;;;;;;17.33;5.40;;;;;;;24.67;100.00;98998.06;5010010;28;20054;-75
2023/07/26 03:53:55;;;;;;;9.98;5.20;;;;;;;24.76;100.00;99001.81;5015135;28;20497;-76
2023/07/26 03:56:21;;;;;;;7.13;5.20;;;;;;;24.39;100.00;98938.56;5013158;28;20034;-76
2023/07/26 03:58:46;;;;;;;6.90;4.38;;;;;;;24.95;100.00;99023.47;5008672;28;20057;-75
2023/07/26 04:01:12;;;;;;;8.32;4.82;;;;;;;24.88;100.00;98994.59;5014559;28;20091;-74
2023/07/26 04:03:38;;;;;;;12.02;5.30;;;;;;;25.16;100.00;99028.91;5021851;28;20034;-75
2023/07/26 04:06:04;;;;;;;8.93;5.93;;;;;;;24.66;100.00;98929.31;5018715;28;20032;-75
2023/07/26 04:08:29;;;;;;;15.23;5.65;;;;;;;24.59;100.00;98907.50;5014441;28;20030;-74
2023/07/26 04:10:55;;;;;;;11.45;5.30;;;;;;;25.00;100.00;98981.00;5018066;28;20545;-75
2023/07/26 04:13:21;;;;;;;8.63;4.13;;;;;;;24.37;100.00;98872.63;5013974;28;20591;-77
2023/07/26 04:15:47;;;;;;;11.05;5.30;;;;;;;25.24;100.00;98993.44;5012647;28;20069;-75
2023/07/26 04:18:12;;;;;;;13.25;6.15;;;;;;;24.85;100.00;98937.53;5000621;28;20113;-77
2023/07/26 04:20:38;;;;;;;7.95;4.00;;;;;;;25.20;100.00;98984.75;5016284;28;20018;-77
2023/07/26 04:23:03;;;;;;;9.02;4.35;;;;;;;24.90;100.00;98933.63;5019237;28;20045;-75
2023/07/26 04:25:29;;;;;;;7.18;4.47;;;;;;;25.46;100.00;99022.84;5010626;28;20045;-77
2023/07/26 04:27:54;;;;;;;13.50;4.78;;;;;;;25.38;100.00;99022.66;5021538;28;20041;-76
2023/07/26 04:30:20;;;;;;;7.22;3.85;;;;;;;24.58;100.00;98921.88;5012274;28;20457;-77
2023/07/26 04:32:45;;;;;;;9.18;4.25;;;;;;;25.35;100.00;99033.63;5012298;28;20037;-74
2023/07/26 04:35:11;;;;;;;10.32;4.32;;;;;;;25.06;100.00;98953.66;5016890;28;20054;-75
2023/07/26 04:37:37;;;;;;;10.23;5.25;;;;;;;25.65;100.00;99038.28;5017847;28;20046;-74
2023/07/26 04:40:02;;;;;;;7.28;4.03;;;;;;;25.93;100.00;99064.69;5017193;28;20053;-74
2023/07/26 04:42:28;;;;;;;13.93;5.38;;;;;;;25.19;100.00;98928.50;5016381;28;20425;-76
2023/07/26 04:44:53;;;;;;;8.75;5.13;;;;;;;25.88;100.00;99020.22;5010894;28;20552;-78
2023/07/26 04:47:22;;;;;;;6.07;4.18;;;;;;;25.35;100.00;98915.47;5016886;28;20029;-77
2023/07/26 04:49:49;;;;;;;9.50;4.65;;;;;;;25.96;100.00;98981.91;5021267;28;20045;-77
2023/07/26 04:52:14;;;;;;;10.60;4.88;;;;;;;25.50;100.00;98913.34;5009052;28;20232;-77
2023/07/26 04:54:40;;;;;;;6.47;5.22;;;;;;;25.41;100.00;98906.91;5006975;28;20112;-74
2023/07/26 04:57:05;;;;;;;16.30;11.88;;;;;;;25.40;100.00;98941.94;5007927;28;20137;-73
2023/07/26 04:59:31;;;;;;;8.07;5.00;;;;;;;25.11;100.00;98907.66;5014312;28;20033;-74
2023/07/26 05:01:56;;;;;;;8.70;4.97;;;;;;;25.78;100.00;98989.72;5005094;28;20050;-79
2023/07/26 05:04:22;;;;;;;7.10;4.07;;;;;;;25.37;100.00;98913.53;5010506;28;20464;-77
2023/07/26 05:06:48;;;;;;;9.25;4.63;;;;;;;25.69;100.00;98967.19;5002471;28;20454;-78
2023/07/26 05:09:15;;;;;;;21.33;6.05;;;;;;;25.64;100.00;98974.78;5014963;28;20583;-77
2023/07/26 05:11:40;;;;;;;5.50;3.40;;;;;;;25.85;100.00;99000.81;5001493;28;20482;-77
2023/07/26 05:14:06;;;;;;;8.48;3.50;;;;;;;25.78;100.00;98980.78;5014052;28;20042;-80
2023/07/26 05:16:31;;;;;;;12.82;4.65;;;;;;;25.71;100.00;98959.00;5011109;28;20551;-78
2023/07/26 05:18:58;;;;;;;6.15;4.13;;;;;;;26.15;100.00;99023.34;5015093;28;20057;-78
2023/07/26 05:21:24;;;;;;;9.70;4.68;;;;;;;26.23;100.00;99034.28;5000329;28;20054;-78
2023/07/26 05:23:50;;;;;;;12.52;5.38;;;;;;;25.97;100.00;98967.50;5011159;28;20038;-78
2023/07/26 05:26:15;;;;;;;16.17;4.25;;;;;;;26.82;100.00;99021.94;5016724;28;20072;-78
2023/07/26 05:28:41;;;;;;;10.05;5.32;;;;;;;26.01;100.00;98917.00;5017570;28;20049;-78
2023/07/26 05:31:06;;;;;;;8.63;5.03;;;;;;;26.44;100.00;98943.63;5015531;28;20045;-79
2023/07/26 05:33:32;;;;;;;6.05;4.38;;;;;;;27.50;100.00;99057.06;5009483;28;20129;-77
2023/07/26 05:35:57;;;;;;;17.17;6.47;;;;;;;27.83;100.00;99030.66;5014394;28;20056;-77
2023/07/26 05:38:23;;;;;;;7.15;3.72;;;;;;;27.55;100.00;98899.34;5010903;28;20041;-78
2023/07/26 05:40:48;;;;;;;7.55;4.63;;;;;;;28.32;100.00;99044.91;5009606;28;20042;-76
2023/07/26 05:43:14;;;;;;;8.65;5.05;;;;;;;27.81;100.00;99028.09;5007162;28;20050;-78
2023/07/26 05:45:42;;;;;;;8.57;5.10;;;;;;;27.05;100.00;98969.53;5017231;28;20099;-77
2023/07/26 05:48:08;;;;;;;13.02;4.82;;;;;;;27.57;100.00;99064.44;5014702;28;20121;-78
2023/07/26 05:50:33;;;;;;;9.15;4.60;;;;;;;27.33;100.00;99053.25;5014969;28;20403;-78
2023/07/26 05:52:59;;;;;;;5.97;3.63;;;;;;;27.57;100.00;99050.13;5013189;28;20442;-77
2023/07/26 05:55:24;;;;;;;6.70;2.92;;;;;;;27.88;100.00;99018.47;5004341;28;20064;-77
2023/07/26 05:57:49;;;;;;;10.30;3.67;;;;;;;28.36;100.00;99019.34;5013627;28;20046;-77
2023/07/26 06:00:17;;;;;;;7.00;4.72;;;;;;;27.76;100.00;98968.38;5014422;28;20099;-80
2023/07/26 06:02:43;;;;;;;7.93;5.15;;;;;;;27.33;100.00;98950.88;5014095;28;20033;-78
2023/07/26 06:05:08;;;;;;;11.25;5.72;;;;;;;27.40;100.00;98961.94;5019713;28;20107;-78
2023/07/26 06:07:34;;;;;;;20.25;3.65;;;;;;;28.10;100.00;99054.22;4998997;28;20050;-78
2023/07/26 06:09:59;;;;;;;6.70;4.30;;;;;;;28.04;100.00;98987.38;5007979;28;20060;-78
2023/07/26 06:12:25;;;;;;;8.75;6.75;;;;;;;28.61;100.00;99052.91;5013818;28;20129;-77
2023/07/26 06:14:51;;;;;;;5.57;3.55;;;;;;;28.70;100.00;99059.28;5009437;28;20398;-79
2023/07/26 06:17:16;;;;;;;9.77;3.47;;;;;;;28.57;100.00;98963.31;5006599;28;20033;-77
2023/07/26 06:19:43;;;;;;;7.35;4.45;;;;;;;28.81;100.00;99040.19;5047236;28;20042;-75
2023/07/26 06:22:09;;;;;;;5.72;4.00;;;;;;;29.22;100.00;99055.03;5011490;28;20043;-78
2023/07/26 06:24:35;;;;;;;6.47;4.90;;;;;;;29.33;100.00;99035.03;5012838;28;20037;-79
2023/07/26 06:27:00;;;;;;;16.52;6.35;;;;;;;28.82;100.00;98963.56;5005479;28;20052;-77
2023/07/26 06:29:26;;;;;;;14.88;5.28;;;;;;;29.35;100.00;99057.34;5010286;28;20467;-76
2023/07/26 06:31:51;;;;;;;7.85;3.65;;;;;;;29.37;100.00;99054.50;5003386;28;20062;-78
2023/07/26 06:34:17;;;;;;;7.28;4.43;;;;;;;29.44;100.00;99033.97;5014717;28;20409;-79
2023/07/26 06:36:42;;;;;;;7.90;4.22;;;;;;;29.81;100.00;99044.63;5007586;28;20128;-77
2023/07/26 06:39:08;;;;;;;8.75;4.70;;;;;;;29.56;100.00;99061.59;5015501;28;20139;-75
2023/07/26 06:41:33;;;;;;;5.43;4.78;;;;;;;29.60;100.00;99044.91;5012261;28;20101;-77
2023/07/26 06:43:59;;;;;;;10.93;5.15;;;;;;;29.75;100.00;99057.91;5010013;28;20144;-75
2023/07/26 06:46:24;;;;;;;8.40;4.78;;;;;;;29.92;100.00;99069.72;5010951;28;20095;-78
2023/07/26 06:48:50;;;;;;;7.15;4.55;;;;;;;30.06;100.00;99055.59;5012592;28;20049;-82
2023/07/26 06:51:15;;;;;;;9.48;4.57;;;;;;;30.17;100.00;99011.22;5009433;28;20054;-80
2023/07/26 06:53:40;;;;;;;13.10;5.10;;;;;;;30.31;100.00;98989.00;5007862;28;20057;-83
2023/07/26 06:56:06;;;;;;;8.15;3.15;;;;;;;29.94;100.00;98981.13;5008933;28;20129;-79
2023/07/26 06:58:31;;;;;;;8.32;4.53;;;;;;;30.33;100.00;98978.84;5006452;28;20516;-80
2023/07/26 07:00:58;;;;;;;7.88;4.22;;;;;;;30.79;100.00;99063.34;5012500;28;20045;-78
2023/07/26 07:03:24;;;;;;;7.60;4.35;;;;;;;30.50;100.00;98960.81;5006177;28;20070;-80
2023/07/26 07:05:49;;;;;;;11.20;5.10;;;;;;;30.86;100.00;99033.75;5018341;28;20029;-76
2023/07/26 07:08:15;;;;;;;7.15;4.93;;;;;;;31.42;100.00;99044.94;5011376;28;20041;-74
2023/07/26 07:10:40;;;;;;;4.57;3.50;;;;;;;31.09;100.00;98941.84;5018948;28;20103;-77
2023/07/26 07:13:06;;;;;;;7.13;5.20;;;;;;;31.59;99.25;99024.97;5005049;28;20478;-75
2023/07/26 07:15:31;;;;;;;13.35;4.22;;;;;;;31.69;99.75;99022.91;5006001;28;20041;-75
2023/07/26 07:17:58;;;;;;;9.07;6.85;;;;;;;31.77;100.00;99030.19;5006388;28;20030;-74
2023/07/26 07:20:24;;;;;;;7.38;4.80;;;;;;;31.33;100.00;98958.16;5036550;28;20431;-75
2023/07/26 07:22:52;;;;;;;13.65;3.38;;;;;;;31.64;97.50;99014.44;5007831;28;20050;-75
2023/07/26 07:25:17;;;;;;;22.25;7.70;;;;;;;31.91;100.00;99056.66;5006499;28;20127;-75
2023/07/26 07:27:43;;;;;;;6.13;4.88;;;;;;;31.91;98.92;99007.81;5014171;28;20482;-75
2023/07/26 07:30:10;;;;;;;5.88;3.90;;;;;;;32.01;100.00;99033.94;5014339;28;20021;-75
2023/07/26 07:32:37;;;;;;;10.68;3.53;;;;;;;31.76;100.00;99039.34;5009891;28;20453;-76
2023/07/26 07:35:04;;;;;;;10.40;4.32;;;;;;;32.03;100.00;99026.47;5015910;28;20414;-77
2023/07/26 07:37:30;;;;;;;12.10;5.53;;;;;;;32.05;99.30;99027.97;5014592;28;20042;-75
2023/07/26 07:39:55;;;;;;;7.45;5.18;;;;;;;31.69;96.15;98955.09;5014958;28;20049;-77
2023/07/26 07:42:21;;;;;;;10.02;4.40;;;;;;;32.25;94.31;99009.47;5014401;28;20453;-76
2023/07/26 07:44:46;;;;;;;5.90;3.28;;;;;;;32.00;93.31;98975.25;5020439;28;20041;-76
2023/07/26 07:47:11;;;;;;;6.55;3.90;;;;;;;32.46;84.78;99016.19;5012068;28;20041;-76
2023/07/26 07:49:37;;;;;;;7.00;3.97;;;;;;;32.51;76.98;98994.81;5013148;28;20128;-76
2023/07/26 07:52:03;;;;;;;6.45;4.57;;;;;;;32.75;70.29;99023.72;5011345;28;20422;-75
2023/07/26 07:54:28;;;;;;;14.93;11.43;;;;;;;32.29;68.19;98934.78;5003297;28;20038;-75
2023/07/26 07:56:53;;;;;;;4.93;3.47;;;;;;;32.42;69.28;98946.94;5000277;28;20084;-79
2023/07/26 07:59:19;;;;;;;6.75;3.45;;;;;;;33.02;70.46;99030.56;5006956;28;20034;-76
2023/07/26 08:01:44;;;;;;;9.05;6.35;;;;;;;33.03;65.80;99023.25;5008868;28;20487;-75
2023/07/26 08:04:10;;;;;;;5.43;2.97;;;;;;;33.01;66.83;98988.97;5005495;28;20034;-76
2023/07/26 08:06:35;;;;;;;13.88;4.70;;;;;;;32.72;65.02;98915.41;5003977;28;20046;-75
2023/07/26 08:09:01;;;;;;;6.82;4.50;;;;;;;33.01;62.32;98934.59;5006380;28;20072;-75
2023/07/26 08:11:26;;;;;;;12.82;3.72;;;;;;;33.36;57.05;98936.88;5001922;28;21128;-75
2023/07/26 08:13:52;;;;;;;17.38;7.03;;;;;;;33.91;54.96;99006.50;5036111;28;20045;-75
2023/07/26 08:16:17;;;;;;;5.47;3.63;;;;;;;33.71;54.23;98953.59;5007140;28;20042;-75
2023/07/26 08:18:43;;;;;;;11.75;5.22;;;;;;;33.65;51.87;98928.00;5007524;28;20042;-75
2023/07/26 08:21:12;;;;;;;8.63;6.25;;;;;;;33.74;51.26;98917.84;5007654;28;20060;-74
2023/07/26 08:23:39;;;;;;;4.38;3.33;;;;;;;33.92;50.40;98936.56;5001392;28;20474;-75
2023/07/26 08:26:05;;;;;;;9.88;3.03;;;;;;;34.37;48.74;98986.44;4998595;28;20049;-74
2023/07/26 08:28:31;;;;;;;6.07;3.17;;;;;;;34.66;48.69;99000.06;5005731;28;20046;-76
2023/07/26 08:30:57;;;;;;;4.35;2.45;;;;;;;34.74;48.38;99001.00;5007846;28;20099;-74
2023/07/26 08:33:23;;;;;;;8.43;3.25;;;;;;;34.38;45.41;98912.72;5002117;28;20038;-75
2023/07/26 08:35:48;;;;;;;5.38;3.75;;;;;;;34.67;45.88;98954.59;5008138;28;20505;-76
2023/07/26 08:38:14;;;;;;;6.68;4.05;;;;;;;34.40;45.89;98909.81;5007310;28;20068;-76
2023/07/26 08:40:50;;;;;;;5.38;2.67;;;;;;;35.01;45.06;98942.19;5002924;28;20039;-76
2023/07/26 08:43:18;;;;;;;14.68;10.90;;;;;;;35.44;44.38;98999.50;5006012;28;20081;-76
2023/07/26 08:45:44;;;;;;;3.40;1.98;;;;;;;34.90;43.62;98921.72;5007152;28;20490;-75
2023/07/26 08:48:10;;;;;;;4.13;2.55;;;;;;;35.69;43.46;98978.97;5007706;28;20060;-76
2023/07/26 08:50:38;;;;;;;5.95;4.35;;;;;;;35.69;43.72;98970.78;5006381;28;20458;-76
2023/07/26 08:53:05;;;;;;;5.53;3.33;;;;;;;35.63;42.58;98925.16;5007296;28;20128;-76
2023/07/26 08:55:31;;;;;;;10.65;4.53;;;;;;;35.72;41.68;98991.38;5001576;28;20123;-76
2023/07/26 08:57:58;;;;;;;12.10;3.53;;;;;;;35.84;40.77;98983.47;5005600;28;20054;-75
2023/07/26 09:00:28;;;;;;;6.88;3.60;;;;;;;36.29;40.15;98981.28;4997845;28;20091;-75
2023/07/26 09:02:58;;;;;;;6.13;3.33;;;;;;;35.86;40.56;98908.53;5006921;28;20133;-76
2023/07/26 09:05:24;;;;;;;11.73;4.00;;;;;;;35.69;40.56;98894.34;5007636;28;20029;-75
2023/07/26 09:07:53;;;;;;;7.88;2.95;;;;;;;36.02;40.30;98903.78;5004561;28;20255;-75
2023/07/26 09:10:26;;;;;;;5.45;3.22;;;;;;;36.24;39.25;98920.94;5005662;28;20058;-75
2023/07/26 09:12:51;;;;;;;12.02;3.42;;;;;;;36.99;40.38;98984.75;4994481;28;20785;-74
2023/07/26 09:15:18;;;;;;;8.98;3.47;;;;;;;36.89;40.13;98981.59;5004155;28;20037;-75
2023/07/26 09:17:44;;;;;;;8.30;3.35;;;;;;;37.02;38.05;98980.75;5000468;28;20335;-75
2023/07/26 09:20:21;;;;;;;5.72;3.40;;;;;;;37.51;38.20;98969.53;5006710;28;20046;-74
2023/07/26 09:22:47;;;;;;;4.85;3.15;;;;;;;37.83;38.07;98979.84;5003266;28;20042;-76
2023/07/26 09:25:12;;;;;;;7.22;3.05;;;;;;;37.37;38.70;98892.03;5000774;28;20099;-74
2023/07/26 09:27:58;;;;;;;11.70;3.60;;;;;;;36.91;37.82;98900.19;5006107;28;20088;-76
2023/07/26 09:30:24;;;;;;;11.23;4.57;;;;;;;38.03;38.67;98972.50;5003572;28;20069;-75
2023/07/26 09:32:50;;;;;;;4.85;3.25;;;;;;;37.14;37.69;98884.25;5007236;28;20034;-76
2023/07/26 09:35:15;;;;;;;6.40;3.55;;;;;;;37.79;38.15;98965.72;5001006;28;20131;-77
2023/07/26 09:37:41;;;;;;;17.40;4.55;;;;;;;37.55;39.15;98874.97;5006424;28;20046;-75
2023/07/26 09:40:07;;;;;;;7.32;3.58;;;;;;;38.48;38.21;98947.09;4997899;28;20489;-75
2023/07/26 09:42:58;;;;;;;7.25;3.95;;;;;;;38.70;37.77;98961.31;5006499;28;20121;-76
2023/07/26 09:45:24;;;;;;;9.15;3.15;;;;;;;38.19;37.68;98861.59;4994870;28;20081;-74
2023/07/26 09:47:51;;;;;;;14.90;3.55;;;;;;;38.60;38.46;98937.94;5006800;28;20069;-76
2023/07/26 09:50:25;;;;;;;7.90;3.80;;;;;;;38.97;38.15;98937.38;5005905;28;20494;-75
2023/07/26 09:52:55;;;;;;;13.75;2.97;;;;;;;38.91;37.28;98869.63;5002168;28;20129;-74
2023/07/26 09:55:26;;;;;;;14.05;4.70;;;;;;;38.85;37.65;98866.72;5004215;28;20042;-73
2023/07/26 09:57:54;;;;;;;16.83;4.30;;;;;;;38.91;36.52;98866.91;5004958;28;20037;-76
2023/07/26 10:00:26;;;;;;;9.75;3.47;;;;;;;38.43;36.91;98869.06;5006191;28;20065;-75
2023/07/26 10:02:57;;;;;;;7.10;2.78;;;;;;;39.32;37.05;98939.66;4997680;28;20030;-74
2023/07/26 10:05:29;;;;;;;5.10;4.55;;;;;;;39.22;36.83;98929.16;4986634;28;20130;-74
2023/07/26 10:07:55;;;;;;;14.88;4.00;;;;;;;39.18;35.97;98875.81;4978632;28;20046;-74
2023/07/26 10:10:22;;;;;;;5.90;3.70;;;;;;;38.96;36.33;98859.72;4995584;28;20045;-75
2023/07/26 10:12:52;;;;;;;4.93;2.67;;;;;;;39.62;36.40;98926.97;4997163;28;20034;-73
2023/07/26 10:15:21;;;;;;;10.82;2.83;;;;;;;39.12;35.80;98849.25;4989354;28;20050;-74
2023/07/26 10:17:47;;;;;;;9.43;3.92;;;;;;;39.18;35.57;98873.91;5006166;28;20033;-74
2023/07/26 10:20:14;;;;;;;3.60;2.67;;;;;;;39.47;35.34;98942.94;4981443;28;20046;-74
2023/07/26 10:22:41;;;;;;;7.50;4.10;;;;;;;39.54;35.50;98927.25;4990127;28;20066;-75
2023/07/26 10:25:07;;;;;;;9.73;4.05;;;;;;;39.31;36.10;98932.47;4975694;28;20065;-75
2023/07/26 10:27:34;;;;;;;20.52;4.15;;;;;;;39.95;35.71;98912.09;4991386;28;20213;-76
2023/07/26 10:29:59;;;;;;;5.93;2.67;;;;;;;39.77;34.82;98868.94;5004024;28;20112;-75
2023/07/26 10:32:25;;;;;;;3.95;2.53;;;;;;;40.37;35.63;98914.16;4985390;28;20110;-74
2023/07/26 10:34:55;;;;;;;9.68;4.18;;;;;;;40.06;33.85;98844.53;4984987;28;20056;-74
2023/07/26 10:37:21;;;;;;;4.90;3.00;;;;;;;39.21;34.19;98913.78;4982837;28;20046;-75
2023/07/26 10:39:48;;;;;;;5.63;3.58;;;;;;;40.37;34.41;98895.78;4990435;28;20073;-76
2023/07/26 10:42:27;;;;;;;5.63;3.25;;;;;;;40.14;33.33;98846.97;5002807;28;20050;-75
2023/07/26 10:45:01;;;;;;;4.47;2.20;;;;;;;40.39;33.33;98846.03;4984934;28;20501;-76
2023/07/26 10:47:27;;;;;;;4.30;2.53;;;;;;;40.57;32.88;98847.91;4980217;28;20520;-75
2023/07/26 10:49:54;;;;;;;4.00;2.63;;;;;;;40.11;33.14;98902.41;4984557;28;20054;-76
2023/07/26 10:52:20;;;;;;;5.90;3.20;;;;;;;40.41;33.07;98887.88;4997782;28;20060;-74
2023/07/26 10:54:50;;;;;;;4.65;3.53;;;;;;;39.80;33.59;98845.66;4997149;28;20054;-74
2023/07/26 10:57:26;;;;;;;5.32;2.40;;;;;;;40.29;33.31;98877.66;4986561;28;20133;-75
2023/07/26 11:00:00;;;;;;;6.55;2.90;;;;;;;40.25;32.65;98903.09;5005712;28;20038;-75
2023/07/26 11:02:35;;;;;;;7.93;3.17;;;;;;;40.45;32.59;98900.13;4984448;28;20054;-75
2023/07/26 11:05:02;;;;;;;11.15;3.47;;;;;;;39.53;31.89;98826.72;4979447;28;20043;-77
2023/07/26 11:07:52;;;;;;;7.80;2.78;;;;;;;40.04;31.32;98893.38;5002345;28;20132;-75
2023/07/26 11:10:20;;;;;;;11.23;3.50;;;;;;;40.62;32.48;98892.06;4987270;28;20148;-75
2023/07/26 11:12:49;;;;;;;8.48;2.90;;;;;;;40.46;31.48;98866.03;4986308;28;20038;-75
2023/07/26 11:15:25;;;;;;;3.88;2.38;;;;;;;41.20;30.82;98901.63;4989540;28;20996;-75
2023/07/26 11:17:53;;;;;;;6.25;4.00;;;;;;;40.90;31.47;98885.97;5008112;28;20083;-75
2023/07/26 11:20:18;;;;;;;4.53;2.80;;;;;;;39.98;31.46;98870.41;4984368;28;20038;-75
2023/07/26 11:22:43;;;;;;;7.20;3.10;;;;;;;40.51;31.00;98888.19;4986334;28;20039;-76
2023/07/26 11:25:11;;;;;;;4.32;1.73;;;;;;;40.27;31.42;98854.22;4996717;28;20071;-75